Date,TemperatureHighF,TemperatureAvgF,TemperatureLowF,DewpointHighF,DewpointAvgF,DewpointLowF,HumidityHigh,HumidityAvg,HumidityLow,PressureMaxIn,PressureMinIn,WindSpeedMaxMPH,WindSpeedAvgMPH,GustSpeedMaxMPH,PrecipitationSumIn
2013-1-1,44.4,37.1,29.5,32.5,28.0,21.0,90,70,49,30.40,30.34,2,1,3,0.00
2013-1-2,42.0,35.8,33.1,24.4,21.0,17.9,63,55,40,30.39,30.33,2,1,3,0.00
2013-1-3,50.9,41.1,32.8,33.9,28.5,21.4,77,61,44,30.38,30.29,3,1,3,0.00
2013-1-4,43.4,38.0,36.5,28.0,24.0,21.5,68,57,44,30.39,30.36,2,1,2,0.00
2013-1-5,51.1,42.3,37.9,37.9,32.9,26.4,86,70,39,30.37,30.20,3,0,5,0.00
2013-1-6,42.9,38.7,33.7,38.7,35.9,32.0,95,90,82,30.29,30.18,3,0,3,0.03
2013-1-7,52.5,42.6,33.6,41.2,34.5,27.7,88,74,50,30.36,30.26,4,1,3,0.00
2013-1-8,43.5,36.9,33.6,37.7,34.4,32.1,95,91,80,30.34,30.28,2,0,2,0.00
2013-1-9,49.2,43.7,31.6,40.1,36.5,30.1,95,77,56,30.30,29.97,5,1,6,0.61
2013-1-10,31.4,30.0,28.1,29.5,27.6,26.2,94,91,85,30.19,30.08,1,0,3,0.00
2013-1-11,38.7,31.0,25.1,28.2,25.1,18.8,93,79,56,30.35,30.26,4,1,6,0.01
2013-1-12,29.5,26.3,23.0,18.0,15.8,13.1,73,64,54,30.35,30.29,3,1,3,0.00
2013-1-13,38.9,30.6,23.7,20.8,12.5,4.2,69,48,28,30.38,30.29,4,1,6,0.00
2013-1-14,44.4,34.6,26.0,21.5,12.6,2.0,62,41,24,30.52,30.35,3,1,5,0.00
2013-1-15,33.8,31.6,30.0,22.0,19.6,18.2,66,61,57,30.61,30.51,1,0,1,0.00
2013-1-16,53.6,44.0,37.4,28.8,23.5,17.0,64,45,29,30.57,30.39,2,0,3,0.00
2013-1-17,47.3,44.0,42.2,22.9,14.9,8.5,43,31,22,30.40,30.35,2,0,1,0.00
2013-1-18,61.5,48.6,39.7,32.7,23.8,16.7,56,39,19,30.36,30.26,2,1,3,0.00
2013-1-19,61.9,49.1,39.9,32.9,24.3,15.5,56,39,18,30.38,30.29,2,1,3,0.00
2013-1-20,61.2,48.8,40.6,35.5,25.2,15.6,66,41,23,30.35,30.23,2,1,3,0.00
2013-1-21,60.9,50.3,41.0,33.0,23.9,15.2,57,36,23,30.30,30.23,3,1,4,0.00
2013-1-22,64.7,52.3,43.4,34.0,23.9,14.0,57,34,21,30.26,30.14,3,1,4,0.00
2013-1-23,60.5,53.0,45.2,42.2,26.1,14.9,85,39,21,30.19,30.09,4,2,4,0.03
2013-1-24,54.3,50.8,46.1,48.4,45.1,40.2,95,81,68,30.28,30.16,4,1,7,0.04
2013-1-25,57.9,51.7,48.6,52.9,49.4,47.5,96,92,80,30.28,30.12,3,0,2,0.15
2013-1-26,50.2,45.7,37.0,48.3,43.9,34.9,97,93,83,30.12,30.01,4,1,7,0.01
2013-1-27,42.8,36.9,33.2,36.8,33.6,27.1,99,88,69,30.25,30.09,3,1,4,0.17
2013-1-28,33.8,31.6,29.7,27.3,24.8,22.4,83,76,63,30.30,30.25,2,1,4,0.00
2013-1-29,51.4,41.9,32.4,38.6,33.3,28.5,86,72,53,30.45,30.36,3,1,3,0.00
2013-1-30,55.9,47.5,39.4,41.7,37.1,31.8,86,68,54,30.45,30.37,3,1,3,0.00
2013-1-31,59.5,48.4,40.5,43.4,37.0,31.5,83,66,44,30.41,30.31,3,1,4,0.00
2013-2-1,63.3,52.0,42.9,39.5,34.5,27.5,74,52,34,30.34,30.25,2,1,3,0.00
2013-2-2,61.9,51.1,44.6,43.4,35.3,30.6,73,56,31,30.38,30.31,2,1,3,0.00
2013-2-3,60.1,48.7,40.3,42.6,33.6,24.7,79,57,39,30.31,30.21,3,1,3,0.00
2013-2-4,62.0,50.2,40.9,41.6,32.6,21.3,74,52,30,30.27,30.15,3,1,2,0.00
2013-2-5,54.4,47.6,36.9,43.4,39.2,30.3,92,73,54,30.21,30.10,3,1,3,0.00
2013-2-6,54.9,42.3,32.8,34.9,30.4,23.6,91,65,31,30.27,30.20,2,1,2,0.00
2013-2-7,41.2,38.5,34.6,38.6,35.3,31.7,94,88,79,30.26,30.10,4,2,4,0.06
2013-2-8,46.0,36.7,29.0,32.7,25.9,20.3,91,68,37,30.09,30.02,3,1,3,0.00
2013-2-9,41.8,33.2,29.0,27.5,21.9,17.8,72,63,49,30.22,30.08,4,2,5,0.00
2013-2-10,37.4,34.0,32.5,25.8,22.8,21.6,68,63,54,30.22,30.20,2,1,1,0.00
2013-2-11,54.5,43.8,34.9,30.0,22.0,16.0,64,43,25,30.36,30.21,4,2,6,0.00
2013-2-12,52.7,42.8,34.0,35.1,29.2,22.1,80,59,44,30.48,30.35,2,1,0,0.00
2013-2-13,57.3,45.5,35.8,39.5,34.6,29.6,81,67,44,30.44,30.33,3,1,3,0.00
2013-2-14,68.0,54.5,44.2,42.8,34.0,23.0,66,47,23,30.34,30.26,4,1,6,0.00
2013-2-15,64.9,54.8,46.0,40.3,30.1,21.0,63,40,28,30.38,30.32,2,1,3,0.00
2013-2-16,63.5,50.7,43.2,38.8,30.4,20.3,70,47,27,30.36,30.14,2,1,4,0.00
2013-2-17,60.0,49.1,39.4,39.2,34.4,28.9,74,58,38,30.13,30.05,2,1,4,0.00
2013-2-18,55.8,45.8,37.4,40.0,34.9,30.5,84,66,49,30.09,29.97,5,2,11,0.00
2013-2-19,37.2,33.1,29.5,33.5,30.9,28.1,95,92,85,29.99,29.83,5,2,7,0.36
2013-2-20,47.5,35.6,27.6,38.9,29.9,25.8,95,81,53,30.15,29.90,2,1,4,0.06
2013-2-21,36.6,33.3,29.9,31.6,29.6,27.6,92,86,81,30.24,30.14,2,1,0,0.00
2013-2-22,53.2,43.7,33.9,35.5,29.9,23.1,74,59,42,30.34,30.26,3,1,3,0.00
2013-2-23,49.3,42.8,35.8,37.9,30.7,14.0,91,65,31,30.31,30.21,5,2,6,0.00
2013-2-24,57.5,48.8,30.9,28.0,21.3,9.2,61,36,18,30.36,30.27,2,1,3,0.00
2013-2-25,55.5,44.2,33.5,33.5,27.7,23.0,69,53,35,30.38,30.28,4,1,3,0.00
2013-2-26,59.6,47.5,34.8,27.7,18.2,6.6,70,35,13,30.32,30.24,6,2,5,0.00
2013-2-27,60.1,48.8,39.1,30.6,21.7,10.7,54,35,24,30.46,30.32,3,1,3,0.00
2013-2-28,62.6,51.5,40.6,40.5,33.1,24.7,77,51,27,30.53,30.46,2,1,3,0.00
2013-3-1,67.6,54.9,44.4,46.7,40.9,35.6,76,61,37,30.53,30.36,2,1,3,0.00
2013-3-2,67.4,57.4,49.3,42.1,38.4,34.5,72,51,32,30.36,30.15,3,1,2,0.00
2013-3-3,53.4,50.1,45.8,47.7,43.9,40.1,91,79,61,30.16,30.10,3,1,5,0.19
2013-3-4,60.8,49.5,39.3,45.4,40.4,34.9,90,73,46,30.22,30.11,3,1,3,0.00
2013-3-5,54.8,46.8,42.1,44.0,39.8,35.9,90,77,56,30.11,29.92,5,2,6,0.00
2013-3-6,41.8,38.4,37.7,39.1,36.8,36.1,95,94,90,30.08,29.92,8,5,5,0.75
2013-3-7,48.3,39.6,32.7,38.7,34.7,30.9,93,83,58,30.12,29.99,4,1,4,0.00
2013-3-8,56.0,44.2,34.0,39.8,34.2,29.4,90,70,40,30.10,29.92,7,1,7,0.02
2013-3-9,59.9,48.3,35.9,36.5,31.4,20.2,92,56,25,30.40,30.11,5,1,6,0.00
2013-3-10,60.1,49.6,40.1,43.1,30.9,14.3,83,50,25,30.43,30.35,4,1,2,0.00
2013-3-11,65.0,52.1,39.9,43.7,39.2,32.5,86,63,43,30.37,30.22,2,1,2,0.00
2013-3-12,68.9,56.4,44.3,48.7,42.8,36.7,79,62,42,30.26,30.17,2,1,2,0.00
2013-3-13,73.1,60.6,48.6,48.7,42.0,36.8,77,53,31,30.26,30.18,2,1,3,0.00
2013-3-14,72.9,61.9,53.1,48.8,40.7,31.6,71,47,28,30.22,30.16,3,1,2,0.00
2013-3-15,70.3,58.2,48.5,46.5,41.2,36.1,74,54,32,30.17,30.10,2,1,3,0.00
2013-3-16,67.7,55.9,45.5,46.7,37.3,31.9,72,51,29,30.15,30.08,2,1,3,0.00
2013-3-17,63.0,51.7,40.4,42.3,34.3,28.4,71,53,34,30.18,30.12,3,1,3,0.00
2013-3-18,65.6,57.8,44.4,39.3,34.7,23.8,63,43,21,30.19,30.12,3,1,1,0.00
2013-3-19,62.8,53.4,45.5,47.0,40.1,35.3,95,63,38,30.20,30.14,4,1,6,0.22
2013-3-20,49.3,47.0,44.5,48.2,45.8,43.4,96,96,95,30.21,30.16,5,2,7,1.28
2013-3-21,57.3,48.9,43.7,50.3,43.9,33.6,97,84,55,30.19,30.09,2,0,2,0.00
2013-3-22,56.5,46.8,36.9,40.1,25.9,14.4,86,45,25,30.17,30.09,4,2,6,0.00
2013-3-23,60.3,49.2,38.0,34.4,25.2,14.8,60,40,22,30.21,30.15,3,1,3,0.00
2013-3-24,66.1,52.8,40.1,39.1,33.2,29.0,66,49,30,30.18,30.07,2,1,2,0.00
2013-3-25,65.2,54.4,45.1,42.4,38.2,33.7,73,56,36,30.08,29.97,4,1,5,0.00
2013-3-26,51.3,47.5,44.1,41.6,40.2,38.0,85,76,68,30.02,29.99,3,1,3,0.00
2013-3-27,64.5,53.7,45.0,47.7,42.2,38.3,82,66,45,30.09,30.01,4,1,2,0.00
2013-3-28,56.6,50.7,47.2,50.5,45.9,43.5,90,84,71,30.21,30.09,3,0,3,0.04
2013-3-29,69.9,55.5,44.9,47.5,41.7,38.0,87,63,34,30.22,30.13,3,1,4,0.01
2013-3-30,71.1,60.0,50.7,50.2,44.7,40.3,78,59,37,30.15,30.03,4,1,2,0.00
2013-3-31,55.9,50.3,45.0,49.5,46.2,42.7,95,86,69,30.16,30.05,4,1,6,0.68
2013-4-1,57.8,49.3,44.3,49.4,44.5,41.9,94,84,65,30.25,30.14,3,1,2,0.02
2013-4-2,63.9,52.2,40.5,49.4,43.5,37.6,91,74,51,30.26,30.17,2,1,2,0.00
2013-4-3,68.9,56.2,45.0,53.7,47.0,41.4,91,73,47,30.23,30.07,3,1,2,0.00
2013-4-4,56.2,50.7,44.0,50.7,48.1,42.0,96,91,79,30.19,30.04,7,1,13,0.58
2013-4-5,59.0,51.2,45.9,49.6,46.9,44.7,97,86,66,30.25,30.18,3,1,3,0.01
2013-4-6,58.3,50.6,46.1,48.6,46.1,44.4,95,85,65,30.27,30.19,3,1,3,0.01
2013-4-7,59.5,51.7,42.2,48.6,46.0,40.3,94,82,62,30.22,29.87,4,2,6,0.03
2013-4-8,57.0,46.8,38.6,42.3,33.9,23.4,96,67,28,30.11,29.81,5,2,3,0.36
2013-4-9,66.8,53.4,38.5,32.2,24.9,13.5,70,38,14,30.22,30.11,4,2,3,0.00
2013-4-10,76.7,61.4,46.2,51.0,38.1,27.6,63,43,30,30.28,30.05,3,1,3,0.00
2013-4-11,69.7,60.0,49.3,51.9,44.1,37.2,86,59,31,30.06,29.88,4,1,4,0.00
2013-4-12,72.3,62.2,51.7,49.7,37.0,29.3,54,39,29,29.95,29.88,3,1,2,0.00
2013-4-13,71.4,59.5,48.7,47.0,40.1,35.3,63,50,34,29.94,29.86,2,1,2,0.00
2013-4-14,64.0,54.6,44.1,42.3,34.9,25.0,68,49,24,29.92,29.82,3,1,5,0.00
2013-4-15,53.5,46.1,40.5,40.6,35.4,27.2,92,68,36,29.96,29.85,2,1,4,0.00
2013-4-16,56.5,44.2,34.6,34.3,25.5,12.7,88,53,18,30.26,29.98,5,1,6,0.00
2013-4-17,62.4,49.2,36.9,27.1,19.4,11.1,65,33,14,30.34,30.27,4,1,0,0.00
2013-4-18,66.1,55.1,41.8,37.2,26.1,14.6,58,33,21,30.36,30.30,3,1,2,0.00
2013-4-19,71.2,59.4,47.2,42.2,36.9,29.4,60,44,31,30.33,30.16,2,1,2,0.00
2013-4-20,75.0,61.9,50.1,43.5,38.7,31.2,67,45,27,30.17,30.05,2,0,2,0.00
2013-4-21,76.5,64.3,50.3,48.5,40.6,36.0,64,44,29,30.11,30.03,2,0,2,0.00
2013-4-22,79.4,66.5,53.0,52.3,41.1,28.3,63,42,24,30.05,29.93,4,0,10,0.00
2013-4-23,77.4,65.1,54.3,40.4,26.7,14.2,49,24,12,29.98,29.91,5,1,1,0.00
2013-4-24,78.6,67.0,51.2,36.6,22.7,12.9,55,22,10,29.94,29.84,6,2,2,0.00
2013-4-25,69.8,62.1,50.1,48.8,34.9,10.8,69,39,12,30.14,29.91,2,0,2,0.00
2013-4-26,74.5,62.2,49.7,51.4,45.0,37.9,71,54,37,30.26,30.15,2,1,2,0.00
2013-4-27,80.8,67.1,53.7,54.7,47.6,40.3,73,51,33,30.26,30.12,2,0,3,0.00
2013-4-28,81.6,68.5,54.5,53.6,43.9,31.9,56,42,30,30.12,29.96,1,0,2,0.00
2013-4-29,81.0,69.8,58.0,54.0,47.9,43.1,67,48,27,29.95,29.81,2,0,1,0.00
2013-4-30,77.1,66.1,53.9,52.9,40.0,6.7,70,43,10,29.93,29.77,4,1,5,0.00
2013-5-1,67.3,60.7,56.3,30.9,9.0,3.1,31,13,10,30.03,29.94,4,2,2,0.00
2013-5-2,82.6,70.5,60.1,39.9,26.0,3.9,44,20,9,30.23,30.14,2,1,0,0.00
2013-5-3,82.9,68.4,54.6,49.9,40.7,36.2,54,38,23,30.15,29.87,2,1,3,0.00
2013-5-4,79.8,72.0,64.7,43.2,31.7,18.6,34,23,13,29.86,29.57,6,2,10,0.00
2013-5-5,66.4,59.2,49.9,47.0,40.7,31.6,67,52,29,29.88,29.56,4,1,6,0.00
2013-5-6,59.0,53.3,48.0,51.8,47.0,42.6,94,80,61,30.03,29.89,3,0,5,0.53
2013-5-7,54.4,51.7,50.0,52.2,49.6,47.8,95,92,86,30.10,30.02,2,0,4,0.15
2013-5-8,63.2,56.2,50.9,53.6,50.8,48.8,96,83,63,30.20,30.11,2,0,1,0.05
2013-5-9,71.3,61.3,49.6,56.9,52.7,47.6,93,75,55,30.19,30.11,2,0,1,0.00
2013-5-10,79.1,67.0,53.8,61.4,55.8,50.3,91,69,49,30.21,30.13,3,1,2,0.00
2013-5-11,83.3,72.2,59.5,60.5,55.5,49.2,81,57,40,30.17,30.09,2,1,2,0.00
2013-5-12,82.2,69.2,62.6,57.7,49.0,39.5,72,52,24,30.15,30.05,2,0,3,0.00
2013-5-13,85.7,73.1,59.0,49.0,41.3,33.1,55,34,16,30.10,29.96,3,1,0,0.00
2013-5-14,82.2,71.6,60.1,55.4,46.5,36.0,58,41,29,29.98,29.90,3,1,1,0.00
2013-5-15,72.3,65.1,53.6,51.8,46.3,42.0,73,52,35,30.02,29.92,4,1,3,0.00
2013-5-16,63.4,56.7,50.8,50.6,46.9,43.4,88,70,53,30.04,29.97,3,2,5,0.01
2013-5-17,65.9,55.8,44.1,45.7,42.3,38.3,91,63,39,30.13,30.00,3,1,2,0.00
2013-5-18,73.8,61.0,47.0,47.8,41.7,36.5,73,51,30,30.19,30.12,2,1,2,0.00
2013-5-19,77.5,65.2,51.4,46.2,41.7,28.3,70,45,25,30.17,30.04,4,1,6,0.00
2013-5-20,82.0,70.2,57.2,41.8,34.5,23.0,40,27,14,30.08,29.97,5,2,3,0.00
2013-5-21,72.6,64.9,53.8,44.4,38.0,31.5,62,38,23,29.97,29.89,4,2,3,0.00
2013-5-22,63.4,51.1,36.9,41.1,26.1,13.8,70,41,19,29.99,29.94,3,1,2,0.00
2013-5-23,65.1,53.2,39.4,37.9,30.4,22.5,65,43,28,30.07,29.96,2,1,2,0.00
2013-5-24,53.7,46.5,43.5,36.6,33.7,31.4,66,61,50,30.06,30.02,2,1,3,0.00
2013-5-25,69.6,59.9,48.0,41.8,37.2,32.2,64,44,26,30.05,29.99,3,1,2,0.00
2013-5-26,67.7,57.4,44.6,48.2,42.7,36.3,84,59,38,30.15,30.04,4,1,3,0.00
2013-5-27,57.3,50.8,48.6,45.0,42.8,41.3,79,74,61,30.15,30.10,1,0,1,0.00
2013-5-28,69.6,57.7,49.8,54.1,49.9,45.8,96,77,49,30.07,29.96,2,1,2,0.09
2013-5-29,71.7,60.8,51.7,53.8,50.0,42.9,94,70,44,29.98,29.92,3,1,4,0.03
2013-5-30,76.1,64.4,50.4,51.1,44.8,34.9,79,52,23,30.03,29.96,2,1,3,0.00
2013-5-31,85.6,70.2,52.6,49.4,43.2,33.6,66,40,24,30.03,29.96,3,1,2,0.00
2013-6-1,88.2,76.0,61.6,50.2,41.7,29.8,51,30,20,29.96,29.82,3,1,3,0.00
2013-6-2,88.0,74.4,61.8,52.9,46.6,38.6,53,39,20,29.82,29.70,3,1,3,0.00
2013-6-3,69.3,66.8,65.2,46.0,43.0,40.2,48,42,36,29.74,29.72,2,1,2,0.00
2013-6-4,83.0,72.5,62.1,57.4,53.4,47.8,69,52,39,29.91,29.79,2,1,0,0.00
2013-6-5,85.7,73.5,60.6,60.9,56.8,53.6,79,58,39,29.97,29.90,2,0,0,0.00
2013-6-6,71.5,66.0,63.3,57.8,55.9,53.3,75,70,62,29.93,29.91,1,0,2,0.00
2013-6-7,101.1,82.5,66.1,60.5,51.0,42.6,72,37,15,29.89,29.79,2,1,3,0.00
2013-6-8,101.9,87.0,73.5,62.6,54.2,45.8,47,34,23,29.79,29.69,2,1,3,0.00
2013-6-9,85.5,75.9,62.2,59.8,55.7,49.3,64,50,39,29.84,29.70,4,2,7,0.00
2013-6-10,64.9,60.5,54.3,54.9,50.5,47.5,89,70,57,30.01,29.79,5,1,1,0.01
2013-6-11,78.2,67.4,54.5,52.3,49.7,46.2,84,56,36,30.05,29.95,3,1,2,0.00
2013-6-12,78.6,69.0,57.1,51.9,45.2,35.5,73,46,23,29.99,29.93,4,2,3,0.00
2013-6-13,77.7,65.5,51.9,44.2,37.8,29.7,59,38,18,30.11,29.98,3,1,3,0.00
2013-6-14,82.0,69.8,56.0,44.6,37.4,28.8,47,31,21,30.06,29.89,2,1,4,0.00
2013-6-15,83.0,70.5,56.4,48.5,38.8,27.8,59,35,14,29.99,29.87,4,1,3,0.00
2013-6-16,84.9,71.2,57.7,47.6,39.4,35.0,46,33,17,30.08,29.98,3,1,2,0.00
2013-6-17,81.7,70.3,58.7,48.7,42.6,37.5,61,38,23,30.08,30.00,3,1,3,0.00
2013-6-18,69.9,60.9,50.5,48.7,45.0,39.3,83,58,36,30.01,29.95,3,2,7,0.00
2013-6-19,71.6,59.2,45.7,44.0,39.0,29.7,83,52,24,30.09,29.99,3,1,3,0.00
2013-6-20,77.6,64.4,48.6,41.6,38.1,35.1,63,40,24,30.06,29.99,2,1,2,0.00
2013-6-21,81.1,68.6,53.6,45.9,40.7,35.6,54,38,25,30.01,29.95,2,1,2,0.00
2013-6-22,85.3,73.2,59.3,46.9,40.7,33.1,57,33,19,29.97,29.87,3,1,2,0.00
2013-6-23,70.8,63.9,59.1,55.1,47.9,39.4,85,57,41,29.87,29.78,4,2,5,0.00
2013-6-24,58.5,55.7,53.1,54.8,53.4,51.5,96,92,86,30.01,29.82,3,1,7,0.84
2013-6-25,62.4,58.2,53.4,61.5,57.3,52.3,97,97,96,30.10,29.99,4,1,4,0.60
2013-6-26,78.9,69.0,59.8,65.0,60.9,58.9,97,78,53,30.12,30.06,3,1,1,0.00
2013-6-27,89.4,74.6,60.4,65.7,60.4,56.7,90,65,35,30.13,30.07,2,1,3,0.00
2013-6-28,94.5,79.5,65.9,62.8,56.1,44.9,77,49,21,30.08,29.96,2,1,2,0.00
2013-6-29,98.9,83.9,68.3,65.2,56.3,50.3,63,42,20,29.98,29.85,3,1,4,0.00
2013-6-30,97.9,82.8,69.0,63.8,56.2,49.7,62,43,22,29.86,29.80,3,1,5,0.00
2013-7-1,99.4,85.4,71.3,66.5,58.7,52.2,59,43,21,29.89,29.81,2,1,2,0.00
2013-7-2,98.0,87.5,77.2,68.3,60.3,47.7,68,41,26,29.90,29.82,3,1,6,0.00
2013-7-3,98.4,82.0,72.5,67.3,59.1,52.0,71,47,31,29.90,29.84,2,1,4,0.00
2013-7-4,98.0,85.1,73.2,68.2,60.1,48.9,72,45,23,29.79,29.69,3,1,2,0.00
2013-7-5,88.9,78.8,69.2,58.6,50.3,41.9,62,39,22,29.75,29.65,6,2,3,0.00
2013-7-6,87.3,76.0,62.9,53.4,48.2,39.8,59,40,22,29.80,29.73,4,1,2,0.00
2013-7-7,88.9,76.3,62.2,51.8,46.6,40.1,54,37,20,29.88,29.79,3,1,2,0.00
2013-7-8,89.3,77.6,64.4,52.0,46.5,39.4,57,36,18,30.00,29.86,4,1,2,0.00
2013-7-9,71.7,67.1,64.8,49.5,44.2,39.9,52,44,38,30.05,29.99,2,1,2,0.00
2013-7-10,93.7,80.4,67.4,47.5,41.9,36.6,39,27,16,30.00,29.90,4,2,1,0.00
2013-7-11,88.7,76.4,64.4,50.5,39.9,31.6,51,29,15,29.92,29.88,3,1,2,0.00
2013-7-12,86.2,74.7,61.0,46.5,38.9,31.0,44,29,15,29.94,29.89,3,1,6,0.00
2013-7-13,89.3,76.2,62.2,47.7,40.4,34.5,43,29,15,29.99,29.92,3,1,2,0.00
2013-7-14,69.7,66.1,64.5,47.1,45.2,43.6,49,47,44,29.98,29.96,2,2,2,0.00
2013-7-15,87.7,76.4,65.8,52.9,46.5,37.0,49,36,23,29.92,29.82,3,1,2,0.00
2013-7-16,82.5,71.9,62.3,49.5,42.0,32.6,57,35,20,30.01,29.84,3,1,6,0.00
2013-7-17,86.7,73.5,58.7,49.5,43.2,39.5,53,36,20,30.09,30.02,2,1,2,0.00
2013-7-18,91.4,75.2,61.4,50.5,44.1,36.0,53,36,17,30.08,29.97,2,1,4,0.00
2013-7-19,94.9,80.2,64.7,54.1,47.0,41.6,50,34,16,29.96,29.84,2,1,2,0.00
2013-7-20,97.1,82.7,68.5,57.3,52.0,47.7,50,36,22,29.86,29.73,2,1,2,0.00
2013-7-21,95.9,83.1,71.2,60.1,54.2,46.6,57,39,22,29.84,29.76,2,1,3,0.00
2013-7-22,89.1,77.6,67.0,54.8,45.4,37.7,58,33,21,30.01,29.88,3,1,2,0.00
2013-7-23,88.7,77.9,67.2,53.2,47.0,38.2,53,35,23,30.01,29.92,5,1,5,0.00
2013-7-24,92.2,80.6,66.9,56.5,52.6,49.1,56,39,27,29.99,29.92,2,1,6,0.00
2013-7-25,95.3,81.0,69.7,60.2,56.5,52.9,60,45,28,30.00,29.93,2,1,6,0.00
2013-7-26,96.2,83.1,72.9,61.0,56.1,52.0,58,42,24,30.05,29.98,3,1,2,0.00
2013-7-27,91.1,80.8,70.0,56.5,52.1,46.2,56,39,24,30.00,29.85,4,1,1,0.00
2013-7-28,90.1,78.7,69.2,53.6,50.6,46.6,53,39,24,29.86,29.78,3,1,7,0.00
2013-7-29,85.1,75.8,65.0,52.7,44.7,33.2,55,35,16,29.99,29.81,4,2,3,0.00
2013-7-30,87.7,75.1,61.2,47.7,42.7,37.4,48,33,20,30.09,30.00,3,1,5,0.00
2013-7-31,76.1,66.9,64.4,48.3,43.6,41.5,45,43,35,30.05,30.02,2,1,3,0.00
2013-8-1,81.7,70.8,58.2,42.1,38.6,33.1,50,32,21,30.04,29.97,4,1,2,0.00
2013-8-2,86.8,72.6,57.4,44.4,37.6,26.9,46,29,17,30.00,29.93,2,1,2,0.00
2013-8-3,87.5,74.4,59.5,45.4,40.9,35.6,50,32,18,29.98,29.93,3,1,5,0.00
2013-8-4,86.6,75.0,61.6,48.9,43.1,39.0,49,34,19,30.00,29.95,3,1,4,0.00
2013-8-5,87.5,74.7,61.2,49.4,43.9,40.4,50,35,21,30.01,29.95,3,1,1,0.00
2013-8-6,86.2,73.4,61.8,48.3,43.5,36.9,52,36,22,30.01,29.96,3,1,3,0.00
2013-8-7,65.4,62.4,58.5,49.1,47.1,45.3,65,58,50,30.02,30.00,4,1,1,0.00
2013-8-8,79.9,67.2,55.3,51.5,45.9,40.1,74,49,26,30.06,29.97,3,1,1,0.00
2013-8-9,79.9,66.5,56.7,50.1,45.9,42.6,64,49,29,30.00,29.93,3,1,7,0.00
2013-8-10,82.4,68.1,55.3,48.2,44.9,41.8,64,45,25,30.06,30.00,3,1,6,0.00
2013-8-11,84.2,70.1,58.8,48.8,44.2,40.5,60,42,23,30.05,29.97,3,1,5,0.00
2013-8-12,84.8,72.9,59.8,49.9,43.8,40.6,54,37,22,30.01,29.97,3,1,2,0.00
2013-8-13,89.9,81.1,61.9,48.0,42.0,38.2,47,26,17,30.02,29.96,3,1,2,0.00
2013-8-14,90.0,76.4,62.4,47.1,41.0,34.4,46,30,16,29.98,29.93,3,1,3,0.00
2013-8-15,91.3,76.4,63.8,49.4,40.8,26.6,41,30,10,29.98,29.92,3,1,7,0.00
2013-8-16,93.4,76.5,62.7,51.5,40.2,28.0,49,30,11,30.01,29.96,3,1,7,0.00
2013-8-17,93.2,77.0,64.2,50.1,43.6,34.3,48,33,14,29.99,29.88,2,1,4,0.00
2013-8-18,94.8,79.5,66.4,54.1,47.9,42.4,46,34,21,29.91,29.82,3,1,6,0.00
2013-8-19,88.7,81.1,71.1,57.1,52.3,46.5,47,37,29,29.94,29.84,3,1,3,0.00
2013-8-20,94.6,82.7,73.0,59.3,54.3,50.1,51,39,25,29.88,29.80,3,1,5,0.00
2013-8-21,88.0,77.3,68.0,58.5,53.1,44.3,66,45,25,29.91,29.83,3,1,7,0.00
2013-8-22,86.9,76.0,64.4,53.5,46.5,39.6,58,37,20,29.93,29.88,3,1,2,0.00
2013-8-23,85.3,71.5,60.6,48.1,42.8,39.0,49,37,22,29.91,29.83,3,1,8,0.00
2013-8-24,83.8,71.1,59.9,50.5,44.6,41.5,57,40,26,29.90,29.84,4,2,7,0.00
2013-8-25,80.3,68.8,57.8,56.4,49.2,44.1,65,51,32,29.98,29.89,3,1,12,0.00
2013-8-26,81.7,70.8,57.1,52.9,50.3,47.7,78,51,32,30.03,29.95,3,1,1,0.00
2013-8-27,87.1,73.6,60.6,49.7,46.2,39.8,62,41,22,29.95,29.85,2,1,4,0.00
2013-8-28,87.3,74.9,63.1,53.0,45.6,38.9,54,37,23,29.95,29.85,3,1,5,0.00
2013-8-29,87.4,73.9,62.5,49.2,45.7,40.1,57,39,22,30.06,29.95,3,1,7,0.00
2013-8-30,91.4,73.7,61.4,50.9,43.8,37.5,53,37,17,30.08,29.98,3,1,6,0.00
2013-8-31,90.8,75.8,65.0,48.1,43.9,39.7,47,34,18,30.00,29.92,3,1,4,0.00
2013-9-1,85.5,75.1,65.6,53.3,47.3,40.9,54,39,22,29.95,29.89,2,1,2,0.00
2013-9-2,70.5,64.9,59.9,64.4,58.5,48.0,95,82,45,29.99,29.90,2,1,2,0.82
2013-9-3,79.5,69.5,61.9,62.3,57.9,48.2,95,69,46,30.04,29.97,3,1,6,0.01
2013-9-4,83.5,72.5,60.1,57.5,53.3,46.9,85,53,37,30.05,29.98,3,1,5,0.00
2013-9-5,79.6,68.1,57.6,54.1,46.8,38.1,80,50,24,30.03,29.94,4,1,7,0.00
2013-9-6,86.9,69.3,54.4,47.9,43.3,36.2,62,42,20,30.04,29.93,2,1,5,0.00
2013-9-7,90.1,74.6,62.7,52.8,46.2,43.5,53,38,23,29.95,29.88,2,1,5,0.00
2013-9-8,92.9,77.4,62.9,47.6,44.2,37.5,52,34,18,29.91,29.82,2,1,2,0.00
2013-9-9,95.0,78.7,67.2,49.7,44.0,37.8,42,30,18,29.85,29.73,2,1,4,0.00
2013-9-10,90.3,76.2,67.1,53.3,44.2,34.7,57,33,20,29.87,29.74,2,1,2,0.00
2013-9-11,83.6,73.6,64.5,53.6,49.7,45.8,61,44,28,29.97,29.87,3,1,5,0.00
2013-9-12,82.5,71.5,60.5,53.8,50.1,47.4,68,49,30,30.00,29.92,2,1,2,0.00
2013-9-13,86.4,75.0,64.0,57.7,54.4,51.4,64,50,36,29.93,29.78,2,1,2,0.00
2013-9-14,88.2,75.1,66.1,58.1,54.8,53.1,63,51,33,29.81,29.74,2,1,5,0.00
2013-9-15,83.4,74.1,62.0,53.2,42.2,28.8,63,35,16,29.87,29.75,3,1,3,0.00
2013-9-16,82.4,69.7,56.6,50.3,43.2,36.6,53,40,24,29.92,29.82,3,1,2,0.00
2013-9-17,71.7,63.4,55.1,50.0,46.6,43.0,75,55,37,29.93,29.79,4,2,8,0.00
2013-9-18,80.2,64.1,52.1,45.4,41.0,33.8,70,45,21,29.96,29.88,3,1,4,0.00
2013-9-19,83.3,69.7,57.7,41.6,37.6,32.1,51,33,18,29.92,29.83,3,1,2,0.00
2013-9-20,66.7,62.2,59.4,39.6,35.4,30.0,42,37,31,29.83,29.79,2,1,3,0.00
2013-9-21,58.4,53.3,45.8,53.4,50.3,44.2,95,90,77,29.97,29.84,7,1,10,0.58
2013-9-22,65.0,54.0,43.3,50.8,46.2,41.9,95,77,53,30.09,29.97,2,1,5,0.00
2013-9-23,52.2,50.1,48.8,46.7,44.6,43.1,87,81,75,30.10,30.07,2,1,2,0.00
2013-9-24,70.6,61.0,55.1,52.5,48.5,43.2,76,64,45,30.02,29.89,5,2,10,0.00
2013-9-25,62.7,53.5,47.3,48.2,40.7,29.0,91,65,36,29.95,29.88,2,1,4,0.00
2013-9-26,67.5,55.5,47.3,33.4,30.2,26.0,56,40,25,30.07,29.88,4,2,8,0.00
2013-9-27,70.2,57.5,47.1,38.7,32.3,27.2,55,40,23,30.17,30.07,3,1,4,0.00
2013-9-28,74.8,60.7,50.1,40.3,36.1,31.4,60,42,23,30.19,30.08,4,1,7,0.00
2013-9-29,70.4,60.9,53.1,52.9,43.4,34.6,85,54,38,30.16,30.09,5,2,8,0.00
2013-9-30,67.8,60.2,55.4,54.7,53.1,51.6,88,78,60,30.14,30.03,4,1,2,0.00
2013-10-1,71.3,60.2,49.8,51.9,48.6,45.3,88,67,47,30.06,29.99,3,1,2,0.00
2013-10-2,70.0,62.5,51.3,47.2,38.8,34.0,70,43,29,30.05,30.00,3,1,2,0.00
2013-10-3,69.6,57.3,43.8,36.8,28.5,14.7,67,38,13,30.13,30.01,5,2,9,0.00
2013-10-4,75.4,63.1,52.8,24.9,16.1,7.0,28,17,8,30.20,30.10,7,3,8,0.00
2013-10-5,75.9,63.9,53.0,29.6,20.5,12.0,37,19,12,30.29,30.20,4,1,3,0.00
2013-10-6,79.0,64.8,52.7,32.5,25.9,14.5,38,25,9,30.23,30.11,2,1,3,0.00
2013-10-7,58.8,56.2,52.8,25.7,23.5,20.2,30,28,26,30.10,30.04,2,1,3,0.00
2013-10-8,72.4,59.7,50.2,33.8,28.8,23.3,46,32,19,29.95,29.74,2,1,2,0.00
2013-10-9,66.5,57.3,48.8,38.4,34.7,31.7,63,43,32,29.80,29.61,9,2,11,0.00
2013-10-10,62.8,53.4,43.9,41.5,37.9,33.1,72,56,44,30.09,29.82,4,1,2,0.00
2013-10-11,67.7,56.2,45.4,41.5,38.9,36.8,75,54,36,30.16,30.06,2,1,3,0.00
2013-10-12,68.2,55.6,46.2,39.5,36.9,34.7,67,51,33,30.08,29.95,4,1,3,0.00
2013-10-13,59.7,50.8,45.3,41.1,38.7,33.1,80,65,42,30.14,29.97,2,1,4,0.00
2013-10-14,71.0,58.6,48.1,36.9,32.4,28.3,52,38,24,30.21,30.11,2,1,3,0.00
2013-10-15,75.2,62.7,52.4,32.1,26.7,16.8,36,26,13,30.13,30.04,3,1,3,0.00
2013-10-16,66.7,56.6,49.7,33.4,21.7,13.5,43,26,18,30.18,30.08,2,1,3,0.00
2013-10-17,74.4,60.6,49.6,33.5,30.9,25.2,47,34,17,30.16,30.06,2,1,3,0.00
2013-10-18,74.9,65.4,54.8,35.1,28.5,20.9,41,25,19,30.13,30.06,4,1,3,0.00
2013-10-19,78.3,64.5,53.5,33.8,30.5,26.7,40,29,15,30.16,30.09,2,1,2,0.00
2013-10-20,78.0,64.4,53.3,36.9,33.2,28.8,41,32,22,30.11,29.98,2,1,2,0.00
2013-10-21,77.1,64.7,54.6,38.5,33.9,27.1,45,32,22,30.06,29.99,2,1,3,0.00
2013-10-22,81.0,66.7,56.2,33.6,26.7,18.9,38,23,10,30.09,29.99,2,1,2,0.00
2013-10-23,80.9,65.8,55.7,30.8,23.6,20.3,28,21,11,30.01,29.94,2,1,2,0.00
2013-10-24,77.5,63.7,54.4,34.6,27.6,21.8,35,26,16,30.12,29.99,2,1,2,0.00
2013-10-25,76.4,62.4,52.9,39.7,28.3,20.0,39,28,16,30.22,30.13,2,1,2,0.00
2013-10-26,75.3,63.0,51.7,35.8,29.6,22.7,37,29,20,30.23,30.09,2,1,2,0.00
2013-10-27,72.1,59.8,44.5,39.6,30.5,23.3,82,35,21,30.09,29.63,6,2,11,0.00
2013-10-28,46.2,43.0,40.1,43.6,40.5,37.4,95,91,84,29.96,29.62,3,1,3,0.04
2013-10-29,49.1,45.2,41.6,44.1,41.8,39.7,93,88,76,30.15,29.97,2,0,3,0.02
2013-10-30,57.7,46.7,37.6,40.6,37.1,33.4,93,71,47,30.26,30.15,2,1,2,0.00
2013-10-31,63.3,51.8,41.1,41.7,38.3,32.0,83,61,41,30.28,30.20,3,1,4,0.00
2013-11-1,71.6,57.4,46.7,41.2,35.8,31.7,75,47,23,30.28,30.12,2,1,3,0.00
2013-11-2,68.4,57.5,47.7,41.9,35.7,27.7,68,45,27,30.13,29.96,3,1,2,0.00
2013-11-3,57.6,50.3,42.8,42.8,34.8,24.2,88,58,34,30.05,29.96,2,0,2,0.00
2013-11-4,62.2,51.0,38.9,31.7,22.3,15.5,68,35,17,30.16,29.95,4,2,5,0.00
2013-11-5,63.5,51.4,39.9,31.6,24.9,16.0,55,36,21,30.34,30.16,3,1,2,0.00
2013-11-6,64.7,54.1,44.5,36.8,33.1,29.5,59,46,31,30.37,30.30,2,1,1,0.00
2013-11-7,69.6,59.7,50.6,37.4,29.0,21.1,49,33,16,30.30,30.15,4,1,3,0.00
2013-11-8,69.3,57.2,47.2,34.6,29.4,22.1,51,35,25,30.17,30.05,2,1,2,0.00
2013-11-9,69.9,57.8,47.6,38.0,34.7,31.8,57,43,27,30.12,30.08,2,1,2,0.00
2013-11-10,72.0,59.1,49.4,33.1,29.0,23.1,49,33,17,30.19,30.12,4,1,7,0.00
2013-11-11,58.7,58.1,57.7,27.3,27.1,26.7,31,30,30,30.28,30.27,0,0,1,0.00
2013-11-12,57.5,48.2,55.7,24.7,6.5,-99.9,30,25,26,30.34,30.31,1,-713,2,0.00
2013-11-13,55.7,8.9,55.7,24.7,-79.9,-99.9,30,30,30,30.33,30.17,0,-160,0,0.00
2013-11-14,55.7,8.0,55.7,24.7,-82.0,-99.9,30,30,30,30.19,29.90,0,-143,0,0.00
2013-11-15,55.7,10.9,55.7,24.7,-75.6,-99.9,30,30,30,29.90,29.76,0,-195,0,0.00
2013-11-16,55.7,11.5,55.7,24.7,-74.1,-99.9,30,30,30,29.89,29.76,0,-207,0,0.00
2013-11-17,-200.0,0.0,200.0,-99.9,-99.9,-99.9,30,30,30,30.06,29.88,0,0,0,0.00
2013-11-18,55.7,55.7,55.7,24.7,24.7,24.7,30,30,30,30.06,30.03,0,-999,0,0.00
2013-11-19,55.7,55.7,55.7,24.7,24.7,24.7,30,30,30,30.06,30.00,0,-999,0,0.00
2013-11-20,55.7,55.7,55.7,24.7,24.7,24.7,30,30,30,29.89,29.83,0,-999,0,0.00
2013-11-21,52.1,25.6,46.7,30.9,-35.8,-99.9,46,34,30,29.99,29.84,10,3,14,0.36
2013-11-22,61.3,53.8,47.8,14.2,7.0,-0.9,25,15,8,30.07,29.96,11,6,13,0.00
2013-11-23,58.4,50.7,40.7,35.1,21.8,7.0,70,35,16,30.10,29.97,8,2,2,0.00
2013-11-24,54.5,45.0,35.8,38.6,32.1,22.4,82,61,44,30.28,30.12,2,1,3,0.00
2013-11-25,57.0,46.3,37.2,39.4,34.9,29.3,83,66,46,30.35,30.27,2,1,2,0.00
2013-11-26,58.6,49.4,42.0,40.6,37.2,33.8,80,64,47,30.30,30.09,2,1,3,0.00
2013-11-27,62.6,53.8,46.9,36.5,31.9,28.1,60,44,31,30.07,29.88,3,1,3,0.00
2013-11-28,61.9,52.0,45.1,37.5,33.5,30.8,66,50,33,30.08,29.89,2,1,3,0.00
2013-11-29,62.3,50.6,43.1,38.3,34.4,31.2,70,55,35,30.23,30.08,3,1,3,0.00
2013-11-30,60.5,50.5,42.9,39.4,35.2,29.4,70,56,40,30.27,30.18,3,1,2,0.00
2013-12-1,50.3,46.0,43.5,35.8,32.4,29.9,69,59,51,30.33,30.27,2,1,2,0.00
2013-12-2,61.9,51.8,45.8,41.9,36.2,28.8,77,56,41,30.23,29.88,4,1,6,0.00
2013-12-3,48.6,34.9,31.2,42.3,21.2,16.5,80,57,50,29.90,29.84,4,3,9,0.06
2013-12-4,41.4,33.1,27.7,20.9,17.2,13.8,73,52,35,30.09,29.90,4,2,4,0.00
2013-12-5,40.6,31.6,24.8,19.5,14.3,10.4,69,50,29,30.20,30.08,2,1,3,0.00
2013-12-6,31.9,28.1,26.3,18.4,16.9,15.8,70,63,56,30.20,30.17,2,1,5,0.00
2013-12-7,30.8,28.8,21.3,29.4,26.9,19.1,95,93,86,30.26,29.91,2,0,2,0.50
2013-12-8,33.6,25.6,18.5,26.9,21.0,15.3,91,83,63,30.35,30.27,2,1,2,0.00
2013-12-9,39.3,32.7,26.6,26.1,20.4,11.9,82,61,42,30.48,30.33,4,1,2,0.00
2013-12-10,46.1,36.9,28.3,28.0,22.3,13.9,78,57,34,30.48,30.24,2,1,1,0.00
2013-12-11,52.7,42.0,33.3,29.3,25.5,21.5,73,53,30,30.27,30.23,3,1,3,0.00
2013-12-12,57.6,46.0,37.9,28.2,22.3,15.8,57,40,20,30.29,30.18,3,1,3,0.00
2013-12-13,56.0,44.9,35.5,30.0,23.4,15.6,58,43,25,30.33,30.24,2,1,0,0.00
2013-12-14,57.7,46.3,36.4,33.2,27.1,21.6,60,48,28,30.42,30.32,3,1,3,0.00
2013-12-15,61.2,49.9,40.9,33.9,27.4,21.5,59,43,26,30.41,30.27,2,1,2,0.00
2013-12-16,68.0,56.0,46.8,37.3,30.7,24.1,50,39,25,30.28,30.15,3,1,4,0.00
2013-12-17,69.9,59.5,51.6,34.6,26.9,19.1,46,30,18,30.19,30.03,2,1,3,0.00
2013-12-18,62.0,53.2,45.6,38.0,30.8,22.8,70,43,29,30.01,29.68,3,1,4,0.00
2013-12-19,52.6,44.9,37.2,36.0,27.5,16.4,81,53,32,29.89,29.63,6,2,8,0.00
2013-12-20,55.3,44.6,36.5,27.9,16.0,5.8,58,33,16,30.00,29.87,4,1,3,0.00
2013-12-21,56.2,47.5,38.2,37.5,32.8,26.6,78,58,44,30.09,29.97,3,1,6,0.00
2013-12-22,58.7,49.7,37.0,38.0,31.7,24.7,66,50,42,30.29,30.09,3,1,2,0.00
2013-12-23,60.8,51.0,42.7,36.5,33.1,29.5,63,51,35,30.41,30.29,2,1,3,0.00
2013-12-24,65.5,54.8,46.4,39.2,31.5,12.6,60,43,16,30.33,30.21,4,1,8,0.00
2013-12-25,64.6,55.7,45.4,34.8,25.7,13.4,44,32,18,30.30,30.22,3,1,6,0.00
2013-12-26,65.4,54.0,45.0,31.2,22.6,14.5,45,30,15,30.28,30.19,2,1,2,0.00
2013-12-27,61.9,52.5,44.7,39.0,24.3,14.0,58,34,21,30.25,30.11,3,1,3,0.00
2013-12-28,66.1,53.0,39.5,21.0,15.9,11.4,40,25,12,30.13,30.03,4,2,6,0.00
2013-12-29,58.0,50.5,43.4,30.2,20.2,7.3,48,31,17,30.21,30.08,3,1,4,0.00
2013-12-30,48.5,45.4,43.4,23.3,19.6,16.9,42,36,29,30.26,30.22,2,1,2,0.00
2013-12-31,61.1,51.7,45.6,30.0,23.4,15.2,46,33,23,30.27,30.15,2,0,3,0.00
2014-1-1,50.8,48.3,45.7,26.7,22.0,19.3,43,35,31,30.18,30.16,2,1,2,0.00
2014-1-2,52.1,47.2,45.9,32.3,30.7,29.3,58,53,43,30.18,30.16,2,1,2,0.00